sensor_id;sensor_type;location;lat;lon;timestamp;P1;durP1;ratioP1;P2;durP2;ratioP2
6828;SDS011;17930;48.592;8.868;2023-07-20T00:01:29;5.63;;;2.00;;
6828;SDS011;17930;48.592;8.868;2023-07-20T00:03:56;3.00;;;2.20;;
6828;SDS011;17930;48.592;8.868;2023-07-20T00:06:23;3.07;;;1.90;;
6828;SDS011;17930;48.592;8.868;2023-07-20T00:08:52;4.73;;;2.20;;
6828;SDS011;17930;48.592;8.868;2023-07-20T00:11:20;3.20;;;2.23;;
6828;SDS011;17930;48.592;8.868;2023-07-20T00:13:47;2.30;;;1.77;;
6828;SDS011;17930;48.592;8.868;2023-07-20T00:16:14;3.67;;;2.37;;
6828;SDS011;17930;48.592;8.868;2023-07-20T00:18:40;4.00;;;2.00;;
6828;SDS011;17930;48.592;8.868;2023-07-20T00:21:07;3.33;;;2.27;;
6828;SDS011;17930;48.592;8.868;2023-07-20T00:23:34;3.43;;;2.00;;
6828;SDS011;17930;48.592;8.868;2023-07-20T00:26:01;2.67;;;2.17;;
6828;SDS011;17930;48.592;8.868;2023-07-20T00:28:28;2.30;;;1.90;;
6828;SDS011;17930;48.592;8.868;2023-07-20T00:30:55;3.00;;;2.07;;
6828;SDS011;17930;48.592;8.868;2023-07-20T00:33:22;4.17;;;2.30;;
6828;SDS011;17930;48.592;8.868;2023-07-20T00:35:48;2.80;;;2.00;;
6828;SDS011;17930;48.592;8.868;2023-07-20T00:38:15;6.60;;;2.17;;
6828;SDS011;17930;48.592;8.868;2023-07-20T00:40:42;5.43;;;2.13;;
6828;SDS011;17930;48.592;8.868;2023-07-20T00:43:08;4.80;;;2.30;;
6828;SDS011;17930;48.592;8.868;2023-07-20T00:45:36;3.13;;;2.17;;
6828;SDS011;17930;48.592;8.868;2023-07-20T00:48:04;3.80;;;2.10;;
6828;SDS011;17930;48.592;8.868;2023-07-20T00:50:33;6.37;;;2.30;;
6828;SDS011;17930;48.592;8.868;2023-07-20T00:53:00;4.00;;;3.37;;
6828;SDS011;17930;48.592;8.868;2023-07-20T00:55:31;4.67;;;2.30;;
6828;SDS011;17930;48.592;8.868;2023-07-20T00:57:58;4.00;;;2.23;;
6828;SDS011;17930;48.592;8.868;2023-07-20T01:00:25;4.10;;;2.27;;
6828;SDS011;17930;48.592;8.868;2023-07-20T01:02:54;3.17;;;2.33;;
6828;SDS011;17930;48.592;8.868;2023-07-20T01:05:21;3.13;;;2.37;;
6828;SDS011;17930;48.592;8.868;2023-07-20T01:07:53;2.53;;;2.10;;
6828;SDS011;17930;48.592;8.868;2023-07-20T01:10:25;3.33;;;2.20;;
6828;SDS011;17930;48.592;8.868;2023-07-20T01:12:55;5.20;;;2.07;;
6828;SDS011;17930;48.592;8.868;2023-07-20T01:15:23;2.73;;;2.10;;
6828;SDS011;17930;48.592;8.868;2023-07-20T01:17:50;5.53;;;2.23;;
6828;SDS011;17930;48.592;8.868;2023-07-20T01:20:19;2.97;;;2.07;;
6828;SDS011;17930;48.592;8.868;2023-07-20T01:22:53;2.90;;;1.93;;
6828;SDS011;17930;48.592;8.868;2023-07-20T01:25:44;3.23;;;2.37;;
6828;SDS011;17930;48.592;8.868;2023-07-20T01:31:23;3.20;;;1.93;;
6828;SDS011;17930;48.592;8.868;2023-07-20T01:33:52;3.73;;;2.17;;
6828;SDS011;17930;48.592;8.868;2023-07-20T01:36:21;4.30;;;2.00;;
6828;SDS011;17930;48.592;8.868;2023-07-20T01:38:49;5.03;;;2.03;;
6828;SDS011;17930;48.592;8.868;2023-07-20T01:41:17;2.13;;;1.90;;
6828;SDS011;17930;48.592;8.868;2023-07-20T01:43:44;4.63;;;2.30;;
6828;SDS011;17930;48.592;8.868;2023-07-20T01:46:11;6.07;;;2.77;;
6828;SDS011;17930;48.592;8.868;2023-07-20T01:48:39;3.20;;;2.20;;
6828;SDS011;17930;48.592;8.868;2023-07-20T01:51:05;2.50;;;2.10;;
6828;SDS011;17930;48.592;8.868;2023-07-20T01:53:32;5.30;;;2.00;;
6828;SDS011;17930;48.592;8.868;2023-07-20T01:55:59;3.87;;;2.00;;
6828;SDS011;17930;48.592;8.868;2023-07-20T01:58:26;4.07;;;2.00;;
6828;SDS011;17930;48.592;8.868;2023-07-20T02:00:52;3.80;;;2.10;;
6828;SDS011;17930;48.592;8.868;2023-07-20T02:03:19;7.67;;;2.10;;
6828;SDS011;17930;48.592;8.868;2023-07-20T02:05:48;3.13;;;2.13;;
6828;SDS011;17930;48.592;8.868;2023-07-20T02:08:15;4.00;;;2.07;;
6828;SDS011;17930;48.592;8.868;2023-07-20T02:10:44;3.43;;;2.03;;
6828;SDS011;17930;48.592;8.868;2023-07-20T02:13:12;4.20;;;2.50;;
6828;SDS011;17930;48.592;8.868;2023-07-20T02:15:38;10.77;;;2.87;;
6828;SDS011;17930;48.592;8.868;2023-07-20T02:18:05;3.60;;;2.10;;
6828;SDS011;17930;48.592;8.868;2023-07-20T02:20:32;3.03;;;2.20;;
6828;SDS011;17930;48.592;8.868;2023-07-20T02:23:00;3.43;;;2.10;;
6828;SDS011;17930;48.592;8.868;2023-07-20T02:25:27;3.60;;;2.27;;
6828;SDS011;17930;48.592;8.868;2023-07-20T02:27:55;3.40;;;2.20;;
6828;SDS011;17930;48.592;8.868;2023-07-20T02:30:23;2.50;;;1.90;;
6828;SDS011;17930;48.592;8.868;2023-07-20T02:32:49;2.70;;;2.30;;
6828;SDS011;17930;48.592;8.868;2023-07-20T02:35:16;2.80;;;1.63;;
6828;SDS011;17930;48.592;8.868;2023-07-20T02:37:43;3.60;;;2.17;;
6828;SDS011;17930;48.592;8.868;2023-07-20T02:40:11;4.03;;;2.70;;
6828;SDS011;17930;48.592;8.868;2023-07-20T02:42:38;4.60;;;2.07;;
6828;SDS011;17930;48.592;8.868;2023-07-20T02:45:05;4.57;;;2.13;;
6828;SDS011;17930;48.592;8.868;2023-07-20T02:47:32;3.30;;;1.97;;
6828;SDS011;17930;48.592;8.868;2023-07-20T02:49:59;3.23;;;2.00;;
6828;SDS011;17930;48.592;8.868;2023-07-20T02:52:26;2.87;;;2.00;;
6828;SDS011;17930;48.592;8.868;2023-07-20T02:54:54;4.67;;;1.70;;
6828;SDS011;17930;48.592;8.868;2023-07-20T02:57:22;3.90;;;2.03;;
6828;SDS011;17930;48.592;8.868;2023-07-20T02:59:49;3.60;;;2.03;;
6828;SDS011;17930;48.592;8.868;2023-07-20T03:02:15;3.73;;;2.10;;
6828;SDS011;17930;48.592;8.868;2023-07-20T03:04:42;7.00;;;2.17;;
6828;SDS011;17930;48.592;8.868;2023-07-20T03:07:09;4.40;;;2.23;;
6828;SDS011;17930;48.592;8.868;2023-07-20T03:09:36;6.70;;;2.10;;
6828;SDS011;17930;48.592;8.868;2023-07-20T03:12:03;5.10;;;2.53;;
6828;SDS011;17930;48.592;8.868;2023-07-20T03:14:32;2.97;;;2.30;;
6828;SDS011;17930;48.592;8.868;2023-07-20T03:16:58;3.00;;;1.80;;
6828;SDS011;17930;48.592;8.868;2023-07-20T03:19:25;3.10;;;2.17;;
6828;SDS011;17930;48.592;8.868;2023-07-20T03:21:53;5.03;;;1.90;;
6828;SDS011;17930;48.592;8.868;2023-07-20T03:24:19;4.63;;;2.30;;
6828;SDS011;17930;48.592;8.868;2023-07-20T03:26:46;4.67;;;2.33;;
6828;SDS011;17930;48.592;8.868;2023-07-20T03:29:13;3.03;;;2.37;;
6828;SDS011;17930;48.592;8.868;2023-07-20T03:31:42;4.83;;;2.07;;
6828;SDS011;17930;48.592;8.868;2023-07-20T03:34:09;4.47;;;2.43;;
6828;SDS011;17930;48.592;8.868;2023-07-20T03:36:35;3.70;;;2.30;;
6828;SDS011;17930;48.592;8.868;2023-07-20T03:39:02;2.87;;;2.20;;
6828;SDS011;17930;48.592;8.868;2023-07-20T03:41:29;3.27;;;1.80;;
6828;SDS011;17930;48.592;8.868;2023-07-20T03:43:56;3.13;;;1.80;;
6828;SDS011;17930;48.592;8.868;2023-07-20T03:46:22;1.80;;;1.70;;
6828;SDS011;17930;48.592;8.868;2023-07-20T03:48:50;4.20;;;2.03;;
6828;SDS011;17930;48.592;8.868;2023-07-20T03:51:17;2.60;;;2.07;;
6828;SDS011;17930;48.592;8.868;2023-07-20T03:53:44;2.33;;;1.90;;
6828;SDS011;17930;48.592;8.868;2023-07-20T03:56:11;3.33;;;2.37;;
6828;SDS011;17930;48.592;8.868;2023-07-20T03:58:37;6.97;;;2.10;;
6828;SDS011;17930;48.592;8.868;2023-07-20T04:01:04;3.47;;;2.33;;
6828;SDS011;17930;48.592;8.868;2023-07-20T04:03:30;4.40;;;2.60;;
6828;SDS011;17930;48.592;8.868;2023-07-20T04:05:58;5.73;;;2.23;;
6828;SDS011;17930;48.592;8.868;2023-07-20T04:08:25;3.70;;;1.97;;
6828;SDS011;17930;48.592;8.868;2023-07-20T04:10:55;5.37;;;2.40;;
6828;SDS011;17930;48.592;8.868;2023-07-20T04:13:22;4.00;;;2.30;;
6828;SDS011;17930;48.592;8.868;2023-07-20T04:15:49;3.33;;;2.13;;
6828;SDS011;17930;48.592;8.868;2023-07-20T04:18:15;3.30;;;2.20;;
6828;SDS011;17930;48.592;8.868;2023-07-20T04:20:42;4.30;;;2.30;;
6828;SDS011;17930;48.592;8.868;2023-07-20T04:23:10;2.90;;;2.07;;
6828;SDS011;17930;48.592;8.868;2023-07-20T04:25:38;4.07;;;2.43;;
6828;SDS011;17930;48.592;8.868;2023-07-20T04:28:05;4.27;;;2.40;;
6828;SDS011;17930;48.592;8.868;2023-07-20T04:30:34;3.03;;;2.10;;
6828;SDS011;17930;48.592;8.868;2023-07-20T04:33:02;3.43;;;1.97;;
6828;SDS011;17930;48.592;8.868;2023-07-20T04:35:45;2.40;;;1.67;;
6828;SDS011;17930;48.592;8.868;2023-07-20T04:38:15;3.37;;;2.30;;
6828;SDS011;17930;48.592;8.868;2023-07-20T04:40:46;2.60;;;1.87;;
6828;SDS011;17930;48.592;8.868;2023-07-20T04:43:14;3.00;;;2.03;;
6828;SDS011;17930;48.592;8.868;2023-07-20T04:45:40;3.10;;;1.90;;
6828;SDS011;17930;48.592;8.868;2023-07-20T04:48:08;3.80;;;2.10;;
6828;SDS011;17930;48.592;8.868;2023-07-20T04:50:37;3.80;;;1.90;;
6828;SDS011;17930;48.592;8.868;2023-07-20T04:53:04;3.93;;;2.47;;
6828;SDS011;17930;48.592;8.868;2023-07-20T04:55:31;3.10;;;1.90;;
6828;SDS011;17930;48.592;8.868;2023-07-20T04:58:00;5.13;;;2.07;;
6828;SDS011;17930;48.592;8.868;2023-07-20T05:00:26;3.40;;;2.10;;
6828;SDS011;17930;48.592;8.868;2023-07-20T05:02:53;5.00;;;2.00;;
6828;SDS011;17930;48.592;8.868;2023-07-20T05:05:20;2.43;;;1.97;;
6828;SDS011;17930;48.592;8.868;2023-07-20T05:07:47;4.33;;;2.10;;
6828;SDS011;17930;48.592;8.868;2023-07-20T05:10:13;3.33;;;2.20;;
6828;SDS011;17930;48.592;8.868;2023-07-20T05:12:41;2.90;;;2.27;;
6828;SDS011;17930;48.592;8.868;2023-07-20T05:15:08;4.77;;;2.30;;
6828;SDS011;17930;48.592;8.868;2023-07-20T05:17:36;3.67;;;1.90;;
6828;SDS011;17930;48.592;8.868;2023-07-20T05:20:03;2.00;;;1.80;;
6828;SDS011;17930;48.592;8.868;2023-07-20T05:22:30;3.13;;;2.03;;
6828;SDS011;17930;48.592;8.868;2023-07-20T05:24:57;5.17;;;2.00;;
6828;SDS011;17930;48.592;8.868;2023-07-20T05:27:24;2.87;;;1.90;;
6828;SDS011;17930;48.592;8.868;2023-07-20T05:29:52;4.90;;;2.20;;
6828;SDS011;17930;48.592;8.868;2023-07-20T05:32:18;2.63;;;2.10;;
6828;SDS011;17930;48.592;8.868;2023-07-20T05:34:45;2.57;;;2.30;;
6828;SDS011;17930;48.592;8.868;2023-07-20T05:37:12;8.40;;;2.43;;
6828;SDS011;17930;48.592;8.868;2023-07-20T05:39:38;4.10;;;2.33;;
6828;SDS011;17930;48.592;8.868;2023-07-20T05:42:05;5.30;;;2.63;;
6828;SDS011;17930;48.592;8.868;2023-07-20T05:44:32;4.73;;;2.80;;
6828;SDS011;17930;48.592;8.868;2023-07-20T05:47:00;4.90;;;2.80;;
6828;SDS011;17930;48.592;8.868;2023-07-20T05:49:28;3.53;;;2.40;;
6828;SDS011;17930;48.592;8.868;2023-07-20T05:51:54;4.30;;;2.30;;
6828;SDS011;17930;48.592;8.868;2023-07-20T05:54:23;3.77;;;2.80;;
6828;SDS011;17930;48.592;8.868;2023-07-20T05:56:50;8.37;;;2.90;;
6828;SDS011;17930;48.592;8.868;2023-07-20T05:59:17;4.30;;;2.20;;
6828;SDS011;17930;48.592;8.868;2023-07-20T06:01:44;3.13;;;2.43;;
6828;SDS011;17930;48.592;8.868;2023-07-20T06:04:13;3.70;;;2.60;;
6828;SDS011;17930;48.592;8.868;2023-07-20T06:06:40;4.20;;;2.73;;
6828;SDS011;17930;48.592;8.868;2023-07-20T06:09:07;3.03;;;2.23;;
6828;SDS011;17930;48.592;8.868;2023-07-20T06:11:37;4.97;;;2.37;;
6828;SDS011;17930;48.592;8.868;2023-07-20T06:14:03;2.93;;;2.27;;
6828;SDS011;17930;48.592;8.868;2023-07-20T06:16:30;2.93;;;2.30;;
6828;SDS011;17930;48.592;8.868;2023-07-20T06:18:58;2.83;;;2.17;;
6828;SDS011;17930;48.592;8.868;2023-07-20T06:21:27;2.77;;;2.30;;
6828;SDS011;17930;48.592;8.868;2023-07-20T06:23:54;6.43;;;2.77;;
6828;SDS011;17930;48.592;8.868;2023-07-20T06:26:21;5.03;;;2.73;;
6828;SDS011;17930;48.592;8.868;2023-07-20T06:28:48;3.50;;;2.40;;
6828;SDS011;17930;48.592;8.868;2023-07-20T06:31:14;7.33;;;2.43;;
6828;SDS011;17930;48.592;8.868;2023-07-20T06:33:41;4.97;;;2.00;;
6828;SDS011;17930;48.592;8.868;2023-07-20T06:36:08;2.53;;;2.10;;
6828;SDS011;17930;48.592;8.868;2023-07-20T06:38:36;4.77;;;2.13;;
6828;SDS011;17930;48.592;8.868;2023-07-20T06:41:02;3.83;;;2.50;;
6828;SDS011;17930;48.592;8.868;2023-07-20T06:43:29;5.00;;;2.53;;
6828;SDS011;17930;48.592;8.868;2023-07-20T06:45:56;2.70;;;2.00;;
6828;SDS011;17930;48.592;8.868;2023-07-20T06:48:22;3.90;;;2.00;;
6828;SDS011;17930;48.592;8.868;2023-07-20T06:50:49;2.73;;;1.80;;
6828;SDS011;17930;48.592;8.868;2023-07-20T06:53:16;2.40;;;1.97;;
6828;SDS011;17930;48.592;8.868;2023-07-20T06:55:44;5.47;;;2.10;;
6828;SDS011;17930;48.592;8.868;2023-07-20T06:58:11;3.20;;;1.80;;
6828;SDS011;17930;48.592;8.868;2023-07-20T07:00:38;4.33;;;2.47;;
6828;SDS011;17930;48.592;8.868;2023-07-20T07:03:04;3.40;;;2.03;;
6828;SDS011;17930;48.592;8.868;2023-07-20T07:05:35;4.57;;;1.77;;
6828;SDS011;17930;48.592;8.868;2023-07-20T07:08:02;4.40;;;1.80;;
6828;SDS011;17930;48.592;8.868;2023-07-20T07:10:29;3.90;;;2.37;;
6828;SDS011;17930;48.592;8.868;2023-07-20T07:12:57;2.40;;;2.00;;
6828;SDS011;17930;48.592;8.868;2023-07-20T07:15:23;5.03;;;2.27;;
6828;SDS011;17930;48.592;8.868;2023-07-20T07:17:51;4.60;;;2.20;;
6828;SDS011;17930;48.592;8.868;2023-07-20T07:20:17;2.87;;;1.87;;
6828;SDS011;17930;48.592;8.868;2023-07-20T07:22:44;5.63;;;2.07;;
6828;SDS011;17930;48.592;8.868;2023-07-20T07:25:11;4.93;;;1.70;;
6828;SDS011;17930;48.592;8.868;2023-07-20T07:27:38;3.77;;;1.90;;
6828;SDS011;17930;48.592;8.868;2023-07-20T07:30:07;2.77;;;1.70;;
6828;SDS011;17930;48.592;8.868;2023-07-20T07:32:34;3.40;;;2.13;;
6828;SDS011;17930;48.592;8.868;2023-07-20T07:35:00;5.00;;;2.20;;
6828;SDS011;17930;48.592;8.868;2023-07-20T07:37:27;2.63;;;1.87;;
6828;SDS011;17930;48.592;8.868;2023-07-20T07:39:54;2.73;;;1.73;;
6828;SDS011;17930;48.592;8.868;2023-07-20T07:42:21;5.57;;;2.20;;
6828;SDS011;17930;48.592;8.868;2023-07-20T07:44:47;5.23;;;2.40;;
6828;SDS011;17930;48.592;8.868;2023-07-20T07:47:15;4.40;;;2.23;;
6828;SDS011;17930;48.592;8.868;2023-07-20T07:49:42;3.23;;;2.00;;
6828;SDS011;17930;48.592;8.868;2023-07-20T07:52:09;3.03;;;2.10;;
6828;SDS011;17930;48.592;8.868;2023-07-20T07:54:35;4.07;;;2.00;;
6828;SDS011;17930;48.592;8.868;2023-07-20T07:57:02;4.03;;;1.97;;
6828;SDS011;17930;48.592;8.868;2023-07-20T07:59:29;4.07;;;2.37;;
6828;SDS011;17930;48.592;8.868;2023-07-20T08:02:01;5.13;;;2.30;;
6828;SDS011;17930;48.592;8.868;2023-07-20T08:04:30;2.13;;;1.70;;
6828;SDS011;17930;48.592;8.868;2023-07-20T08:06:56;2.37;;;1.73;;
6828;SDS011;17930;48.592;8.868;2023-07-20T08:09:24;3.20;;;1.80;;
6828;SDS011;17930;48.592;8.868;2023-07-20T08:11:51;2.90;;;2.00;;
6828;SDS011;17930;48.592;8.868;2023-07-20T08:14:17;6.13;;;2.30;;
6828;SDS011;17930;48.592;8.868;2023-07-20T08:16:44;3.60;;;1.70;;
6828;SDS011;17930;48.592;8.868;2023-07-20T08:19:11;3.87;;;2.10;;
6828;SDS011;17930;48.592;8.868;2023-07-20T08:21:39;4.00;;;2.33;;
6828;SDS011;17930;48.592;8.868;2023-07-20T08:24:06;3.60;;;2.10;;
6828;SDS011;17930;48.592;8.868;2023-07-20T08:26:32;2.73;;;1.73;;
6828;SDS011;17930;48.592;8.868;2023-07-20T08:28:59;3.43;;;2.13;;
6828;SDS011;17930;48.592;8.868;2023-07-20T08:31:26;4.57;;;2.30;;
6828;SDS011;17930;48.592;8.868;2023-07-20T08:33:53;3.90;;;2.80;;
6828;SDS011;17930;48.592;8.868;2023-07-20T08:36:22;5.00;;;2.10;;
6828;SDS011;17930;48.592;8.868;2023-07-20T08:38:50;2.43;;;1.60;;
6828;SDS011;17930;48.592;8.868;2023-07-20T08:41:17;3.93;;;1.80;;
6828;SDS011;17930;48.592;8.868;2023-07-20T08:43:45;2.73;;;2.07;;
6828;SDS011;17930;48.592;8.868;2023-07-20T08:46:13;2.40;;;1.70;;
6828;SDS011;17930;48.592;8.868;2023-07-20T08:48:40;2.33;;;1.67;;
6828;SDS011;17930;48.592;8.868;2023-07-20T08:51:08;2.40;;;1.80;;
6828;SDS011;17930;48.592;8.868;2023-07-20T08:53:38;3.23;;;1.50;;
6828;SDS011;17930;48.592;8.868;2023-07-20T08:56:06;2.97;;;1.33;;
6828;SDS011;17930;48.592;8.868;2023-07-20T08:58:36;1.80;;;1.47;;
6828;SDS011;17930;48.592;8.868;2023-07-20T09:01:04;2.40;;;1.80;;
6828;SDS011;17930;48.592;8.868;2023-07-20T09:03:31;1.93;;;1.23;;
6828;SDS011;17930;48.592;8.868;2023-07-20T09:05:57;3.60;;;1.60;;
6828;SDS011;17930;48.592;8.868;2023-07-20T09:08:25;3.87;;;1.50;;
6828;SDS011;17930;48.592;8.868;2023-07-20T09:10:52;3.17;;;1.63;;
6828;SDS011;17930;48.592;8.868;2023-07-20T09:13:20;1.67;;;1.30;;
6828;SDS011;17930;48.592;8.868;2023-07-20T09:15:47;2.77;;;1.60;;
6828;SDS011;17930;48.592;8.868;2023-07-20T09:18:25;1.80;;;1.30;;
6828;SDS011;17930;48.592;8.868;2023-07-20T09:20:52;3.37;;;1.40;;
6828;SDS011;17930;48.592;8.868;2023-07-20T09:23:19;1.80;;;1.30;;
6828;SDS011;17930;48.592;8.868;2023-07-20T09:25:46;1.60;;;1.30;;
6828;SDS011;17930;48.592;8.868;2023-07-20T09:28:16;2.27;;;1.50;;
6828;SDS011;17930;48.592;8.868;2023-07-20T09:30:44;3.17;;;1.50;;
6828;SDS011;17930;48.592;8.868;2023-07-20T09:33:17;2.73;;;1.27;;
6828;SDS011;17930;48.592;8.868;2023-07-20T09:35:46;2.50;;;1.50;;
6828;SDS011;17930;48.592;8.868;2023-07-20T09:38:12;3.87;;;1.30;;
6828;SDS011;17930;48.592;8.868;2023-07-20T09:40:41;2.57;;;1.33;;
6828;SDS011;17930;48.592;8.868;2023-07-20T09:43:08;3.13;;;1.37;;
6828;SDS011;17930;48.592;8.868;2023-07-20T09:45:36;2.77;;;1.37;;
6828;SDS011;17930;48.592;8.868;2023-07-20T09:48:07;2.03;;;1.30;;
6828;SDS011;17930;48.592;8.868;2023-07-20T09:50:38;1.30;;;1.20;;
6828;SDS011;17930;48.592;8.868;2023-07-20T09:53:06;2.20;;;1.23;;
6828;SDS011;17930;48.592;8.868;2023-07-20T09:55:33;2.33;;;1.40;;
6828;SDS011;17930;48.592;8.868;2023-07-20T09:58:01;2.37;;;1.07;;
6828;SDS011;17930;48.592;8.868;2023-07-20T10:00:29;1.57;;;1.30;;
6828;SDS011;17930;48.592;8.868;2023-07-20T10:02:55;2.07;;;1.47;;
6828;SDS011;17930;48.592;8.868;2023-07-20T10:05:24;1.60;;;1.20;;
6828;SDS011;17930;48.592;8.868;2023-07-20T10:07:54;1.63;;;1.30;;
6828;SDS011;17930;48.592;8.868;2023-07-20T10:10:21;3.20;;;1.40;;
6828;SDS011;17930;48.592;8.868;2023-07-20T10:12:49;1.93;;;1.23;;
6828;SDS011;17930;48.592;8.868;2023-07-20T10:15:18;1.27;;;1.17;;
6828;SDS011;17930;48.592;8.868;2023-07-20T10:17:55;1.40;;;1.20;;
6828;SDS011;17930;48.592;8.868;2023-07-20T10:20:27;2.90;;;1.50;;
6828;SDS011;17930;48.592;8.868;2023-07-20T10:22:54;2.33;;;1.00;;
6828;SDS011;17930;48.592;8.868;2023-07-20T10:25:23;3.23;;;1.30;;
6828;SDS011;17930;48.592;8.868;2023-07-20T10:27:50;2.40;;;1.20;;
6828;SDS011;17930;48.592;8.868;2023-07-20T10:30:18;1.30;;;1.20;;
6828;SDS011;17930;48.592;8.868;2023-07-20T10:32:45;2.80;;;1.20;;
6828;SDS011;17930;48.592;8.868;2023-07-20T10:35:13;3.00;;;1.67;;
6828;SDS011;17930;48.592;8.868;2023-07-20T10:37:52;2.80;;;1.40;;
6828;SDS011;17930;48.592;8.868;2023-07-20T10:40:23;1.37;;;1.00;;
6828;SDS011;17930;48.592;8.868;2023-07-20T10:42:50;1.70;;;1.40;;
6828;SDS011;17930;48.592;8.868;2023-07-20T10:45:18;2.50;;;1.60;;
6828;SDS011;17930;48.592;8.868;2023-07-20T10:47:45;2.23;;;1.50;;
6828;SDS011;17930;48.592;8.868;2023-07-20T10:50:12;6.47;;;1.33;;
6828;SDS011;17930;48.592;8.868;2023-07-20T10:52:39;4.17;;;1.40;;
6828;SDS011;17930;48.592;8.868;2023-07-20T10:55:11;3.13;;;1.27;;
6828;SDS011;17930;48.592;8.868;2023-07-20T10:57:41;2.60;;;1.50;;
6828;SDS011;17930;48.592;8.868;2023-07-20T11:00:08;1.73;;;1.20;;
6828;SDS011;17930;48.592;8.868;2023-07-20T11:02:43;3.97;;;1.70;;
6828;SDS011;17930;48.592;8.868;2023-07-20T11:08:00;1.23;;;1.10;;
6828;SDS011;17930;48.592;8.868;2023-07-20T11:10:30;1.67;;;1.20;;
6828;SDS011;17930;48.592;8.868;2023-07-20T11:13:15;1.60;;;1.37;;
6828;SDS011;17930;48.592;8.868;2023-07-20T11:15:46;1.27;;;1.10;;
6828;SDS011;17930;48.592;8.868;2023-07-20T11:18:14;3.33;;;1.30;;
6828;SDS011;17930;48.592;8.868;2023-07-20T11:20:41;2.33;;;1.50;;
6828;SDS011;17930;48.592;8.868;2023-07-20T11:23:08;3.03;;;1.43;;
6828;SDS011;17930;48.592;8.868;2023-07-20T11:25:39;1.83;;;1.30;;
6828;SDS011;17930;48.592;8.868;2023-07-20T11:28:07;1.57;;;1.40;;
6828;SDS011;17930;48.592;8.868;2023-07-20T11:30:34;1.93;;;1.30;;
6828;SDS011;17930;48.592;8.868;2023-07-20T11:33:01;1.50;;;1.40;;
6828;SDS011;17930;48.592;8.868;2023-07-20T11:35:27;3.70;;;1.47;;
6828;SDS011;17930;48.592;8.868;2023-07-20T11:37:54;2.30;;;1.20;;
6828;SDS011;17930;48.592;8.868;2023-07-20T11:40:21;2.87;;;1.30;;
6828;SDS011;17930;48.592;8.868;2023-07-20T11:42:50;2.03;;;1.10;;
6828;SDS011;17930;48.592;8.868;2023-07-20T11:45:17;2.93;;;1.40;;
6828;SDS011;17930;48.592;8.868;2023-07-20T11:47:45;2.30;;;1.47;;
6828;SDS011;17930;48.592;8.868;2023-07-20T11:50:11;2.60;;;1.40;;
6828;SDS011;17930;48.592;8.868;2023-07-20T11:52:39;1.40;;;1.30;;
6828;SDS011;17930;48.592;8.868;2023-07-20T11:55:07;1.67;;;1.20;;
6828;SDS011;17930;48.592;8.868;2023-07-20T11:57:34;1.50;;;1.17;;
6828;SDS011;17930;48.592;8.868;2023-07-20T12:00:02;1.30;;;1.20;;
6828;SDS011;17930;48.592;8.868;2023-07-20T12:02:34;3.20;;;1.30;;
6828;SDS011;17930;48.592;8.868;2023-07-20T12:05:02;1.60;;;1.30;;
6828;SDS011;17930;48.592;8.868;2023-07-20T12:07:29;1.53;;;1.13;;
6828;SDS011;17930;48.592;8.868;2023-07-20T12:10:02;1.27;;;1.17;;
6828;SDS011;17930;48.592;8.868;2023-07-20T12:12:31;2.60;;;1.40;;
6828;SDS011;17930;48.592;8.868;2023-07-20T12:17:42;1.20;;;1.10;;
6828;SDS011;17930;48.592;8.868;2023-07-20T12:20:10;2.37;;;1.10;;
6828;SDS011;17930;48.592;8.868;2023-07-20T12:22:38;2.50;;;1.50;;
6828;SDS011;17930;48.592;8.868;2023-07-20T12:25:06;2.27;;;1.50;;
6828;SDS011;17930;48.592;8.868;2023-07-20T12:27:33;1.63;;;1.27;;
6828;SDS011;17930;48.592;8.868;2023-07-20T12:30:02;3.73;;;1.23;;
6828;SDS011;17930;48.592;8.868;2023-07-20T12:32:32;2.70;;;1.43;;
6828;SDS011;17930;48.592;8.868;2023-07-20T12:34:59;3.17;;;1.60;;
6828;SDS011;17930;48.592;8.868;2023-07-20T12:37:26;2.27;;;1.30;;
6828;SDS011;17930;48.592;8.868;2023-07-20T12:39:53;1.97;;;1.60;;
6828;SDS011;17930;48.592;8.868;2023-07-20T12:42:19;2.43;;;1.50;;
6828;SDS011;17930;48.592;8.868;2023-07-20T12:44:47;2.43;;;1.30;;
6828;SDS011;17930;48.592;8.868;2023-07-20T12:47:15;2.30;;;1.63;;
6828;SDS011;17930;48.592;8.868;2023-07-20T12:49:44;1.67;;;1.30;;
6828;SDS011;17930;48.592;8.868;2023-07-20T12:52:11;5.33;;;1.80;;
6828;SDS011;17930;48.592;8.868;2023-07-20T12:54:38;1.90;;;1.37;;
6828;SDS011;17930;48.592;8.868;2023-07-20T12:57:05;3.80;;;2.00;;
6828;SDS011;17930;48.592;8.868;2023-07-20T12:59:32;2.33;;;1.27;;
6828;SDS011;17930;48.592;8.868;2023-07-20T13:01:59;1.43;;;1.33;;
6828;SDS011;17930;48.592;8.868;2023-07-20T13:04:26;2.07;;;1.30;;
6828;SDS011;17930;48.592;8.868;2023-07-20T13:06:54;1.80;;;1.40;;
6828;SDS011;17930;48.592;8.868;2023-07-20T13:09:23;2.27;;;1.60;;
6828;SDS011;17930;48.592;8.868;2023-07-20T13:11:50;2.40;;;1.47;;
6828;SDS011;17930;48.592;8.868;2023-07-20T13:14:17;1.67;;;1.53;;
6828;SDS011;17930;48.592;8.868;2023-07-20T13:16:44;2.80;;;1.40;;
6828;SDS011;17930;48.592;8.868;2023-07-20T13:19:11;1.90;;;1.30;;
6828;SDS011;17930;48.592;8.868;2023-07-20T13:21:37;2.10;;;1.30;;
6828;SDS011;17930;48.592;8.868;2023-07-20T13:24:06;2.13;;;1.60;;
6828;SDS011;17930;48.592;8.868;2023-07-20T13:26:32;1.50;;;1.40;;
6828;SDS011;17930;48.592;8.868;2023-07-20T13:28:59;3.10;;;1.40;;
6828;SDS011;17930;48.592;8.868;2023-07-20T13:31:26;3.30;;;1.53;;
6828;SDS011;17930;48.592;8.868;2023-07-20T13:33:53;2.20;;;1.30;;
6828;SDS011;17930;48.592;8.868;2023-07-20T13:36:20;1.63;;;1.17;;
6828;SDS011;17930;48.592;8.868;2023-07-20T13:38:47;2.53;;;1.40;;
6828;SDS011;17930;48.592;8.868;2023-07-20T13:41:15;2.20;;;1.20;;
6828;SDS011;17930;48.592;8.868;2023-07-20T13:43:42;2.90;;;1.37;;
6828;SDS011;17930;48.592;8.868;2023-07-20T13:46:09;2.23;;;1.60;;
6828;SDS011;17930;48.592;8.868;2023-07-20T13:48:36;2.17;;;1.30;;
6828;SDS011;17930;48.592;8.868;2023-07-20T13:51:02;2.67;;;1.50;;
6828;SDS011;17930;48.592;8.868;2023-07-20T13:53:29;2.43;;;1.30;;
6828;SDS011;17930;48.592;8.868;2023-07-20T13:55:56;2.47;;;1.40;;
6828;SDS011;17930;48.592;8.868;2023-07-20T13:58:24;1.90;;;1.63;;
6828;SDS011;17930;48.592;8.868;2023-07-20T14:00:51;3.30;;;1.70;;
6828;SDS011;17930;48.592;8.868;2023-07-20T14:03:18;1.77;;;1.37;;
6828;SDS011;17930;48.592;8.868;2023-07-20T14:05:44;2.80;;;1.50;;
6828;SDS011;17930;48.592;8.868;2023-07-20T14:08:11;2.50;;;1.40;;
6828;SDS011;17930;48.592;8.868;2023-07-20T14:10:38;3.83;;;1.43;;
6828;SDS011;17930;48.592;8.868;2023-07-20T14:13:04;3.27;;;1.40;;
6828;SDS011;17930;48.592;8.868;2023-07-20T14:15:33;2.50;;;1.67;;
6828;SDS011;17930;48.592;8.868;2023-07-20T14:18:01;4.30;;;1.63;;
6828;SDS011;17930;48.592;8.868;2023-07-20T14:20:27;2.83;;;1.47;;
6828;SDS011;17930;48.592;8.868;2023-07-20T14:22:54;4.60;;;1.60;;
6828;SDS011;17930;48.592;8.868;2023-07-20T14:25:21;2.20;;;1.60;;
6828;SDS011;17930;48.592;8.868;2023-07-20T14:27:47;4.33;;;1.47;;
6828;SDS011;17930;48.592;8.868;2023-07-20T14:30:14;2.50;;;1.47;;
6828;SDS011;17930;48.592;8.868;2023-07-20T14:32:42;3.43;;;1.13;;
6828;SDS011;17930;48.592;8.868;2023-07-20T14:35:09;2.00;;;1.47;;
6828;SDS011;17930;48.592;8.868;2023-07-20T14:37:36;1.97;;;1.73;;
6828;SDS011;17930;48.592;8.868;2023-07-20T14:40:03;4.40;;;1.50;;
6828;SDS011;17930;48.592;8.868;2023-07-20T14:42:31;1.83;;;1.13;;
6828;SDS011;17930;48.592;8.868;2023-07-20T14:44:58;4.37;;;1.40;;
6828;SDS011;17930;48.592;8.868;2023-07-20T14:47:25;1.60;;;1.20;;
6828;SDS011;17930;48.592;8.868;2023-07-20T14:49:53;1.57;;;1.20;;
6828;SDS011;17930;48.592;8.868;2023-07-20T14:52:20;2.23;;;1.33;;
6828;SDS011;17930;48.592;8.868;2023-07-20T14:54:46;1.50;;;1.40;;
6828;SDS011;17930;48.592;8.868;2023-07-20T14:57:13;3.37;;;1.57;;
6828;SDS011;17930;48.592;8.868;2023-07-20T14:59:41;2.10;;;1.40;;
6828;SDS011;17930;48.592;8.868;2023-07-20T15:02:09;3.10;;;1.30;;
6828;SDS011;17930;48.592;8.868;2023-07-20T15:04:35;3.07;;;1.40;;
6828;SDS011;17930;48.592;8.868;2023-07-20T15:07:04;4.03;;;1.60;;
6828;SDS011;17930;48.592;8.868;2023-07-20T15:09:31;3.97;;;1.40;;
6828;SDS011;17930;48.592;8.868;2023-07-20T15:11:58;4.50;;;1.60;;